sensor_id;sensor_type;location;lat;lon;timestamp;pressure;altitude;pressure_sealevel;temperature;humidity
79415;BME280;68864;44.972;19.612;2023-05-10T00:00:38;100829.63;;;11.54;63.99
79415;BME280;68864;44.972;19.612;2023-05-10T00:03:05;100830.72;;;11.50;64.18
79415;BME280;68864;44.972;19.612;2023-05-10T00:05:32;100825.13;;;11.50;64.46
79415;BME280;68864;44.972;19.612;2023-05-10T00:07:59;100809.09;;;11.47;64.45
79415;BME280;68864;44.972;19.612;2023-05-10T00:10:27;100810.72;;;11.48;64.31
79415;BME280;68864;44.972;19.612;2023-05-10T00:12:53;100805.44;;;11.43;64.46
79415;BME280;68864;44.972;19.612;2023-05-10T00:15:20;100810.09;;;11.39;64.33
79415;BME280;68864;44.972;19.612;2023-05-10T00:17:47;100814.53;;;11.40;64.93
79415;BME280;68864;44.972;19.612;2023-05-10T00:20:14;100812.59;;;11.44;64.66
79415;BME280;68864;44.972;19.612;2023-05-10T00:22:41;100809.91;;;11.47;64.60
79415;BME280;68864;44.972;19.612;2023-05-10T00:25:08;100809.97;;;11.51;64.21
79415;BME280;68864;44.972;19.612;2023-05-10T00:27:37;100806.03;;;11.52;64.68
79415;BME280;68864;44.972;19.612;2023-05-10T00:30:04;100810.78;;;11.51;64.22
79415;BME280;68864;44.972;19.612;2023-05-10T00:32:31;100799.19;;;11.49;64.56
79415;BME280;68864;44.972;19.612;2023-05-10T00:34:58;100798.41;;;11.49;64.81
79415;BME280;68864;44.972;19.612;2023-05-10T00:37:25;100799.38;;;11.57;64.22
79415;BME280;68864;44.972;19.612;2023-05-10T00:39:52;100789.28;;;11.52;64.24
79415;BME280;68864;44.972;19.612;2023-05-10T00:42:18;100792.59;;;11.57;64.05
79415;BME280;68864;44.972;19.612;2023-05-10T00:44:46;100790.09;;;11.52;64.63
79415;BME280;68864;44.972;19.612;2023-05-10T00:47:13;100782.72;;;11.44;65.00
79415;BME280;68864;44.972;19.612;2023-05-10T00:49:41;100780.97;;;11.36;65.40
79415;BME280;68864;44.972;19.612;2023-05-10T00:52:07;100787.28;;;11.18;66.98
79415;BME280;68864;44.972;19.612;2023-05-10T00:54:34;100786.56;;;11.21;65.72
79415;BME280;68864;44.972;19.612;2023-05-10T00:57:01;100779.72;;;11.18;66.42
79415;BME280;68864;44.972;19.612;2023-05-10T00:59:28;100785.59;;;11.13;66.20
79415;BME280;68864;44.972;19.612;2023-05-10T01:01:57;100780.63;;;11.06;67.03
79415;BME280;68864;44.972;19.612;2023-05-10T01:04:24;100784.81;;;10.97;67.03
79415;BME280;68864;44.972;19.612;2023-05-10T01:06:52;100770.31;;;10.91;66.88
79415;BME280;68864;44.972;19.612;2023-05-10T01:09:19;100772.19;;;10.87;67.18
79415;BME280;68864;44.972;19.612;2023-05-10T01:11:47;100766.09;;;10.82;67.24
79415;BME280;68864;44.972;19.612;2023-05-10T01:14:16;100771.13;;;10.76;67.73
79415;BME280;68864;44.972;19.612;2023-05-10T01:16:45;100774.34;;;10.78;67.69
79415;BME280;68864;44.972;19.612;2023-05-10T01:19:19;100756.09;;;10.65;68.58
79415;BME280;68864;44.972;19.612;2023-05-10T01:21:50;100767.88;;;10.74;68.27
79415;BME280;68864;44.972;19.612;2023-05-10T01:24:40;100760.63;;;10.69;69.12
79415;BME280;68864;44.972;19.612;2023-05-10T01:30:30;100754.75;;;10.59;69.65
79415;BME280;68864;44.972;19.612;2023-05-10T01:33:08;100762.31;;;10.58;69.49
79415;BME280;68864;44.972;19.612;2023-05-10T01:35:41;100750.16;;;10.51;69.60
79415;BME280;68864;44.972;19.612;2023-05-10T01:38:16;100713.47;;;10.33;69.74
79415;BME280;68864;44.972;19.612;2023-05-10T01:40:51;100747.13;;;10.56;69.38
79415;BME280;68864;44.972;19.612;2023-05-10T01:43:26;100746.31;;;10.55;69.16
79415;BME280;68864;44.972;19.612;2023-05-10T01:46:00;100748.75;;;10.57;69.16
79415;BME280;68864;44.972;19.612;2023-05-10T01:48:36;100743.81;;;10.50;68.82
79415;BME280;68864;44.972;19.612;2023-05-10T01:51:04;100732.91;;;10.61;68.84
79415;BME280;68864;44.972;19.612;2023-05-10T01:53:33;100736.06;;;10.59;68.95
79415;BME280;68864;44.972;19.612;2023-05-10T01:56:04;100730.13;;;10.61;68.54
79415;BME280;68864;44.972;19.612;2023-05-10T01:58:33;100737.69;;;10.60;68.26
79415;BME280;68864;44.972;19.612;2023-05-10T02:01:03;100731.03;;;10.49;69.35
79415;BME280;68864;44.972;19.612;2023-05-10T02:03:32;100735.34;;;10.47;69.30
79415;BME280;68864;44.972;19.612;2023-05-10T02:06:02;100721.13;;;10.36;69.64
79415;BME280;68864;44.972;19.612;2023-05-10T02:08:30;100728.34;;;10.37;70.12
79415;BME280;68864;44.972;19.612;2023-05-10T02:10:59;100732.28;;;10.36;69.38
79415;BME280;68864;44.972;19.612;2023-05-10T02:13:29;100661.69;;;10.01;69.64
79415;BME280;68864;44.972;19.612;2023-05-10T02:15:59;100722.91;;;10.44;68.97
79415;BME280;68864;44.972;19.612;2023-05-10T02:18:27;100714.47;;;10.41;69.75
79415;BME280;68864;44.972;19.612;2023-05-10T02:20:55;100709.63;;;10.38;69.39
79415;BME280;68864;44.972;19.612;2023-05-10T02:23:24;100708.91;;;10.41;69.28
79415;BME280;68864;44.972;19.612;2023-05-10T02:25:53;100697.59;;;10.33;69.34
79415;BME280;68864;44.972;19.612;2023-05-10T02:28:21;100703.16;;;10.33;69.53
79415;BME280;68864;44.972;19.612;2023-05-10T02:30:50;100698.56;;;10.25;70.12
79415;BME280;68864;44.972;19.612;2023-05-10T02:33:18;100707.88;;;10.17;70.54
79415;BME280;68864;44.972;19.612;2023-05-10T02:35:46;100700.34;;;10.18;70.54
79415;BME280;68864;44.972;19.612;2023-05-10T02:38:14;100671.16;;;9.84;70.76
79415;BME280;68864;44.972;19.612;2023-05-10T02:40:43;100703.63;;;10.08;70.32
79415;BME280;68864;44.972;19.612;2023-05-10T02:43:12;100702.13;;;10.10;71.24
79415;BME280;68864;44.972;19.612;2023-05-10T02:45:42;100707.31;;;10.12;70.62
79415;BME280;68864;44.972;19.612;2023-05-10T02:48:10;100714.16;;;10.14;70.36
79415;BME280;68864;44.972;19.612;2023-05-10T02:50:37;100706.50;;;10.11;70.28
79415;BME280;68864;44.972;19.612;2023-05-10T02:53:10;100688.09;;;10.07;71.14
79415;BME280;68864;44.972;19.612;2023-05-10T02:55:40;100706.50;;;10.23;70.12
79415;BME280;68864;44.972;19.612;2023-05-10T02:58:08;100713.28;;;10.26;70.53
79415;BME280;68864;44.972;19.612;2023-05-10T03:00:35;100708.06;;;10.24;70.23
79415;BME280;68864;44.972;19.612;2023-05-10T03:03:02;100707.66;;;10.22;69.98
79415;BME280;68864;44.972;19.612;2023-05-10T03:05:29;100695.34;;;10.23;69.94
79415;BME280;68864;44.972;19.612;2023-05-10T03:07:56;100702.50;;;10.24;70.31
79415;BME280;68864;44.972;19.612;2023-05-10T03:10:27;100709.44;;;10.30;70.51
79415;BME280;68864;44.972;19.612;2023-05-10T03:13:06;100708.72;;;10.33;70.62
79415;BME280;68864;44.972;19.612;2023-05-10T03:15:45;100707.44;;;10.31;70.35
79415;BME280;68864;44.972;19.612;2023-05-10T03:18:17;100701.81;;;10.27;70.72
79415;BME280;68864;44.972;19.612;2023-05-10T03:20:47;100694.16;;;10.24;70.01
79415;BME280;68864;44.972;19.612;2023-05-10T03:23:21;100694.59;;;10.26;70.51
79415;BME280;68864;44.972;19.612;2023-05-10T03:25:48;100700.09;;;10.23;70.64
79415;BME280;68864;44.972;19.612;2023-05-10T03:28:16;100694.97;;;10.25;70.20
79415;BME280;68864;44.972;19.612;2023-05-10T03:30:46;100699.28;;;10.22;70.28
79415;BME280;68864;44.972;19.612;2023-05-10T03:33:13;100692.91;;;10.22;70.64
79415;BME280;68864;44.972;19.612;2023-05-10T03:35:39;100684.56;;;10.22;70.01
79415;BME280;68864;44.972;19.612;2023-05-10T03:38:06;100691.38;;;10.24;70.55
79415;BME280;68864;44.972;19.612;2023-05-10T03:40:33;100684.97;;;10.24;70.27
79415;BME280;68864;44.972;19.612;2023-05-10T03:43:00;100681.41;;;10.23;70.52
79415;BME280;68864;44.972;19.612;2023-05-10T03:45:27;100688.97;;;10.23;70.94
79415;BME280;68864;44.972;19.612;2023-05-10T03:47:55;100677.72;;;10.19;70.47
79415;BME280;68864;44.972;19.612;2023-05-10T03:50:22;100687.88;;;10.27;70.27
79415;BME280;68864;44.972;19.612;2023-05-10T03:52:49;100674.31;;;10.26;70.23
79415;BME280;68864;44.972;19.612;2023-05-10T03:55:15;100689.75;;;10.39;69.85
79415;BME280;68864;44.972;19.612;2023-05-10T03:57:42;100696.50;;;10.38;70.22
79415;BME280;68864;44.972;19.612;2023-05-10T04:00:13;100703.25;;;10.37;70.35
79415;BME280;68864;44.972;19.612;2023-05-10T04:02:40;100685.56;;;10.29;70.03
79415;BME280;68864;44.972;19.612;2023-05-10T04:05:09;100703.34;;;10.41;70.36
79415;BME280;68864;44.972;19.612;2023-05-10T04:07:35;100701.44;;;10.45;69.99
79415;BME280;68864;44.972;19.612;2023-05-10T04:10:02;100698.66;;;10.45;69.95
79415;BME280;68864;44.972;19.612;2023-05-10T04:12:29;100697.59;;;10.49;69.78
79415;BME280;68864;44.972;19.612;2023-05-10T04:14:56;100703.34;;;10.56;69.59
79415;BME280;68864;44.972;19.612;2023-05-10T04:17:22;100708.19;;;10.59;69.83
79415;BME280;68864;44.972;19.612;2023-05-10T04:19:49;100703.41;;;10.60;70.51
79415;BME280;68864;44.972;19.612;2023-05-10T04:22:19;100703.34;;;10.56;70.55
79415;BME280;68864;44.972;19.612;2023-05-10T04:24:46;100705.84;;;10.61;70.37
79415;BME280;68864;44.972;19.612;2023-05-10T04:27:13;100712.84;;;10.71;69.80
79415;BME280;68864;44.972;19.612;2023-05-10T04:29:39;100715.28;;;10.72;70.18
79415;BME280;68864;44.972;19.612;2023-05-10T04:32:07;100706.56;;;10.74;70.06
79415;BME280;68864;44.972;19.612;2023-05-10T04:34:35;100711.31;;;10.73;69.91
79415;BME280;68864;44.972;19.612;2023-05-10T04:37:02;100707.53;;;10.82;69.92
79415;BME280;68864;44.972;19.612;2023-05-10T04:39:30;100695.28;;;10.86;70.26
79415;BME280;68864;44.972;19.612;2023-05-10T04:41:57;100691.88;;;10.77;69.95
79415;BME280;68864;44.972;19.612;2023-05-10T04:44:24;100695.09;;;10.95;69.86
79415;BME280;68864;44.972;19.612;2023-05-10T04:46:51;100702.53;;;11.06;69.53
79415;BME280;68864;44.972;19.612;2023-05-10T04:49:17;100701.91;;;11.13;69.24
79415;BME280;68864;44.972;19.612;2023-05-10T04:51:44;100701.69;;;11.22;69.45
79415;BME280;68864;44.972;19.612;2023-05-10T04:54:11;100690.31;;;11.30;69.10
79415;BME280;68864;44.972;19.612;2023-05-10T04:56:39;100688.94;;;11.40;68.99
79415;BME280;68864;44.972;19.612;2023-05-10T04:59:06;100678.06;;;11.35;69.25
79415;BME280;68864;44.972;19.612;2023-05-10T05:01:33;100685.03;;;11.44;68.71
79415;BME280;68864;44.972;19.612;2023-05-10T05:04:00;100683.94;;;11.49;68.63
79415;BME280;68864;44.972;19.612;2023-05-10T05:06:26;100689.44;;;11.65;68.28
79415;BME280;68864;44.972;19.612;2023-05-10T05:08:53;100665.88;;;11.62;68.18
79415;BME280;68864;44.972;19.612;2023-05-10T05:11:20;100692.56;;;11.79;68.61
79415;BME280;68864;44.972;19.612;2023-05-10T05:13:48;100679.53;;;11.86;68.38
79415;BME280;68864;44.972;19.612;2023-05-10T05:16:15;100676.38;;;11.88;68.59
79415;BME280;68864;44.972;19.612;2023-05-10T05:18:42;100683.28;;;11.94;68.44
79415;BME280;68864;44.972;19.612;2023-05-10T05:21:15;100676.16;;;11.97;68.58
79415;BME280;68864;44.972;19.612;2023-05-10T05:23:42;100684.22;;;12.02;68.18
79415;BME280;68864;44.972;19.612;2023-05-10T05:26:09;100697.94;;;12.10;68.50
79415;BME280;68864;44.972;19.612;2023-05-10T05:28:36;100688.88;;;12.17;67.58
79415;BME280;68864;44.972;19.612;2023-05-10T05:31:05;100696.59;;;12.23;67.52
79415;BME280;68864;44.972;19.612;2023-05-10T05:33:32;100693.88;;;12.27;67.62
79415;BME280;68864;44.972;19.612;2023-05-10T05:36:00;100704.00;;;12.35;67.25
79415;BME280;68864;44.972;19.612;2023-05-10T05:38:27;100688.16;;;12.43;66.98
79415;BME280;68864;44.972;19.612;2023-05-10T05:40:54;100693.06;;;12.49;67.18
79415;BME280;68864;44.972;19.612;2023-05-10T05:43:21;100687.28;;;12.61;67.72
79415;BME280;68864;44.972;19.612;2023-05-10T05:45:47;100697.69;;;12.64;66.71
79415;BME280;68864;44.972;19.612;2023-05-10T05:48:16;100710.88;;;12.64;67.00
79415;BME280;68864;44.972;19.612;2023-05-10T05:50:42;100696.19;;;12.70;67.05
79415;BME280;68864;44.972;19.612;2023-05-10T05:53:09;100696.00;;;12.83;66.53
79415;BME280;68864;44.972;19.612;2023-05-10T05:55:36;100694.50;;;12.89;66.14
79415;BME280;68864;44.972;19.612;2023-05-10T05:58:03;100705.41;;;12.97;65.95
79415;BME280;68864;44.972;19.612;2023-05-10T06:00:29;100705.16;;;13.06;66.29
79415;BME280;68864;44.972;19.612;2023-05-10T06:02:56;100699.56;;;13.06;66.06
79415;BME280;68864;44.972;19.612;2023-05-10T06:05:24;100694.38;;;13.08;65.72
79415;BME280;68864;44.972;19.612;2023-05-10T06:07:51;100710.19;;;13.20;65.28
79415;BME280;68864;44.972;19.612;2023-05-10T06:10:18;100698.28;;;13.26;65.50
79415;BME280;68864;44.972;19.612;2023-05-10T06:12:45;100714.00;;;13.34;65.11
79415;BME280;68864;44.972;19.612;2023-05-10T06:15:11;100706.44;;;13.38;64.67
79415;BME280;68864;44.972;19.612;2023-05-10T06:17:38;100703.34;;;13.47;64.61
79415;BME280;68864;44.972;19.612;2023-05-10T06:20:06;100692.72;;;13.60;64.17
79415;BME280;68864;44.972;19.612;2023-05-10T06:22:35;100702.03;;;13.67;64.39
79415;BME280;68864;44.972;19.612;2023-05-10T06:25:01;100690.44;;;13.69;63.84
79415;BME280;68864;44.972;19.612;2023-05-10T06:27:28;100736.91;;;13.73;63.91
79415;BME280;68864;44.972;19.612;2023-05-10T06:29:55;100705.03;;;13.85;63.75
79415;BME280;68864;44.972;19.612;2023-05-10T06:32:22;100709.47;;;13.89;63.69
79415;BME280;68864;44.972;19.612;2023-05-10T06:34:48;100697.63;;;14.03;63.70
79415;BME280;68864;44.972;19.612;2023-05-10T06:37:15;100690.53;;;14.13;63.46
79415;BME280;68864;44.972;19.612;2023-05-10T06:39:43;100701.03;;;14.23;63.34
79415;BME280;68864;44.972;19.612;2023-05-10T06:42:10;100688.75;;;14.35;63.49
79415;BME280;68864;44.972;19.612;2023-05-10T06:44:37;100683.38;;;14.59;62.90
79415;BME280;68864;44.972;19.612;2023-05-10T06:47:03;100680.69;;;14.77;62.14
79415;BME280;68864;44.972;19.612;2023-05-10T06:49:30;100702.44;;;14.87;61.38
79415;BME280;68864;44.972;19.612;2023-05-10T06:51:57;100701.69;;;14.97;61.28
79415;BME280;68864;44.972;19.612;2023-05-10T06:54:24;100694.59;;;15.14;60.59
79415;BME280;68864;44.972;19.612;2023-05-10T06:56:52;100709.50;;;15.25;60.35
79415;BME280;68864;44.972;19.612;2023-05-10T06:59:19;100707.63;;;15.47;59.90
79415;BME280;68864;44.972;19.612;2023-05-10T07:01:46;100694.84;;;15.53;59.30
79415;BME280;68864;44.972;19.612;2023-05-10T07:04:13;100704.28;;;16.10;57.07
79415;BME280;68864;44.972;19.612;2023-05-10T07:06:40;100691.13;;;16.78;55.09
79415;BME280;68864;44.972;19.612;2023-05-10T07:09:08;100680.25;;;16.41;55.99
79415;BME280;68864;44.972;19.612;2023-05-10T07:11:35;100692.69;;;17.15;54.04
79415;BME280;68864;44.972;19.612;2023-05-10T07:14:04;100699.00;;;18.38;50.57
79415;BME280;68864;44.972;19.612;2023-05-10T07:16:30;100725.59;;;19.40;47.57
79415;BME280;68864;44.972;19.612;2023-05-10T07:18:57;100679.13;;;20.36;45.29
79415;BME280;68864;44.972;19.612;2023-05-10T07:21:24;100700.84;;;20.92;44.11
79415;BME280;68864;44.972;19.612;2023-05-10T07:23:53;100662.63;;;21.83;41.92
79415;BME280;68864;44.972;19.612;2023-05-10T07:26:20;100677.25;;;20.22;46.27
79415;BME280;68864;44.972;19.612;2023-05-10T07:28:47;100668.75;;;19.95;46.68
79415;BME280;68864;44.972;19.612;2023-05-10T07:31:15;100679.00;;;20.93;43.88
79415;BME280;68864;44.972;19.612;2023-05-10T07:33:42;100690.25;;;19.89;45.92
79415;BME280;68864;44.972;19.612;2023-05-10T07:36:08;100690.56;;;19.98;45.81
79415;BME280;68864;44.972;19.612;2023-05-10T07:38:35;100676.63;;;20.65;43.90
79415;BME280;68864;44.972;19.612;2023-05-10T07:41:02;100720.31;;;19.79;45.90
79415;BME280;68864;44.972;19.612;2023-05-10T07:43:29;100689.44;;;19.58;46.85
79415;BME280;68864;44.972;19.612;2023-05-10T07:45:55;100677.63;;;19.29;47.32
79415;BME280;68864;44.972;19.612;2023-05-10T07:48:24;100683.06;;;19.84;45.41
79415;BME280;68864;44.972;19.612;2023-05-10T07:50:51;100687.13;;;19.09;47.17
79415;BME280;68864;44.972;19.612;2023-05-10T07:53:17;100715.59;;;20.00;45.02
79415;BME280;68864;44.972;19.612;2023-05-10T07:55:50;100688.50;;;19.68;45.66
79415;BME280;68864;44.972;19.612;2023-05-10T07:58:16;100678.03;;;18.94;51.26
79415;BME280;68864;44.972;19.612;2023-05-10T08:00:43;100683.97;;;18.58;53.38
79415;BME280;68864;44.972;19.612;2023-05-10T08:03:10;100669.53;;;17.76;55.19
79415;BME280;68864;44.972;19.612;2023-05-10T08:05:38;100693.97;;;18.04;56.16
79415;BME280;68864;44.972;19.612;2023-05-10T08:08:05;100683.94;;;18.00;56.37
79415;BME280;68864;44.972;19.612;2023-05-10T08:10:31;100684.56;;;17.38;58.05
79415;BME280;68864;44.972;19.612;2023-05-10T08:12:58;100672.97;;;17.11;58.24
79415;BME280;68864;44.972;19.612;2023-05-10T08:15:25;100690.63;;;17.40;58.35
79415;BME280;68864;44.972;19.612;2023-05-10T08:17:52;100706.34;;;17.23;58.74
79415;BME280;68864;44.972;19.612;2023-05-10T08:20:19;100712.44;;;16.65;61.88
79415;BME280;68864;44.972;19.612;2023-05-10T08:22:48;100692.28;;;16.49;63.63
79415;BME280;68864;44.972;19.612;2023-05-10T08:25:15;100691.91;;;16.93;61.07
79415;BME280;68864;44.972;19.612;2023-05-10T08:27:42;100707.59;;;16.76;61.94
79415;BME280;68864;44.972;19.612;2023-05-10T08:30:09;100712.28;;;17.57;57.36
79415;BME280;68864;44.972;19.612;2023-05-10T08:32:37;100700.75;;;17.13;59.43
79415;BME280;68864;44.972;19.612;2023-05-10T08:35:05;100692.69;;;17.15;59.92
79415;BME280;68864;44.972;19.612;2023-05-10T08:37:31;100696.63;;;17.45;59.81
79415;BME280;68864;44.972;19.612;2023-05-10T08:39:59;100696.44;;;17.95;58.86
79415;BME280;68864;44.972;19.612;2023-05-10T08:42:28;100707.78;;;18.50;57.36
79415;BME280;68864;44.972;19.612;2023-05-10T08:44:57;100701.78;;;18.45;56.29
79415;BME280;68864;44.972;19.612;2023-05-10T08:47:25;100679.06;;;18.07;58.42
79415;BME280;68864;44.972;19.612;2023-05-10T08:49:53;100700.75;;;18.80;56.50
79415;BME280;68864;44.972;19.612;2023-05-10T08:52:21;100709.38;;;19.07;55.13
79415;BME280;68864;44.972;19.612;2023-05-10T08:54:49;100685.13;;;18.64;57.63
79415;BME280;68864;44.972;19.612;2023-05-10T08:57:17;100676.38;;;17.79;59.89
79415;BME280;68864;44.972;19.612;2023-05-10T08:59:45;100682.53;;;18.33;59.17
79415;BME280;68864;44.972;19.612;2023-05-10T09:02:13;100711.41;;;18.58;57.83
79415;BME280;68864;44.972;19.612;2023-05-10T09:04:40;100683.50;;;18.63;57.18
79415;BME280;68864;44.972;19.612;2023-05-10T09:07:07;100694.00;;;18.67;58.14
79415;BME280;68864;44.972;19.612;2023-05-10T09:09:34;100676.31;;;18.59;58.37
79415;BME280;68864;44.972;19.612;2023-05-10T09:12:02;100678.34;;;17.93;60.00
79415;BME280;68864;44.972;19.612;2023-05-10T09:14:33;100671.59;;;17.72;60.08
79415;BME280;68864;44.972;19.612;2023-05-10T09:17:01;100661.22;;;17.37;61.68
79415;BME280;68864;44.972;19.612;2023-05-10T09:19:28;100666.16;;;17.05;62.75
79415;BME280;68864;44.972;19.612;2023-05-10T09:21:54;100684.66;;;17.06;62.94
79415;BME280;68864;44.972;19.612;2023-05-10T09:24:25;100684.28;;;16.93;63.22
79415;BME280;68864;44.972;19.612;2023-05-10T09:26:52;100677.44;;;17.01;59.54
79415;BME280;68864;44.972;19.612;2023-05-10T09:29:19;100672.59;;;17.05;59.51
79415;BME280;68864;44.972;19.612;2023-05-10T09:31:48;100695.91;;;17.13;57.81
79415;BME280;68864;44.972;19.612;2023-05-10T09:34:18;100662.13;;;17.06;58.13
79415;BME280;68864;44.972;19.612;2023-05-10T09:36:53;100689.06;;;17.14;57.53
79415;BME280;68864;44.972;19.612;2023-05-10T09:39:20;100675.81;;;17.04;57.22
79415;BME280;68864;44.972;19.612;2023-05-10T09:41:47;100658.50;;;17.05;59.62
79415;BME280;68864;44.972;19.612;2023-05-10T09:44:16;100658.91;;;17.04;56.86
79415;BME280;68864;44.972;19.612;2023-05-10T09:46:50;100667.72;;;17.20;56.77
79415;BME280;68864;44.972;19.612;2023-05-10T09:49:18;100666.09;;;17.26;55.89
79415;BME280;68864;44.972;19.612;2023-05-10T09:51:45;100656.38;;;17.45;55.28
79415;BME280;68864;44.972;19.612;2023-05-10T09:54:13;100658.72;;;17.57;54.62
79415;BME280;68864;44.972;19.612;2023-05-10T09:56:40;100647.47;;;17.64;55.28
79415;BME280;68864;44.972;19.612;2023-05-10T09:59:08;100654.72;;;17.62;55.42
79415;BME280;68864;44.972;19.612;2023-05-10T10:01:36;100642.22;;;17.56;53.16
79415;BME280;68864;44.972;19.612;2023-05-10T10:04:04;100643.44;;;17.62;55.72
79415;BME280;68864;44.972;19.612;2023-05-10T10:06:40;100642.22;;;17.66;55.33
79415;BME280;68864;44.972;19.612;2023-05-10T10:09:08;100648.19;;;17.79;54.20
79415;BME280;68864;44.972;19.612;2023-05-10T10:11:35;100645.38;;;17.79;53.91
79415;BME280;68864;44.972;19.612;2023-05-10T10:14:02;100648.63;;;17.70;53.92
79415;BME280;68864;44.972;19.612;2023-05-10T10:16:30;100659.94;;;17.60;53.54
79415;BME280;68864;44.972;19.612;2023-05-10T10:18:58;100663.53;;;17.71;54.01
79415;BME280;68864;44.972;19.612;2023-05-10T10:21:26;100628.53;;;17.68;53.70
79415;BME280;68864;44.972;19.612;2023-05-10T10:23:53;100623.66;;;17.72;54.26
79415;BME280;68864;44.972;19.612;2023-05-10T10:26:20;100662.75;;;17.63;54.02
79415;BME280;68864;44.972;19.612;2023-05-10T10:28:51;100620.88;;;17.58;52.82
79415;BME280;68864;44.972;19.612;2023-05-10T10:31:27;100633.75;;;17.63;52.85
79415;BME280;68864;44.972;19.612;2023-05-10T10:34:00;100609.59;;;17.65;52.46
79415;BME280;68864;44.972;19.612;2023-05-10T10:36:29;100639.00;;;17.68;53.11
79415;BME280;68864;44.972;19.612;2023-05-10T10:38:59;100614.47;;;17.61;52.56
79415;BME280;68864;44.972;19.612;2023-05-10T10:41:31;100640.94;;;17.78;52.95
79415;BME280;68864;44.972;19.612;2023-05-10T10:44:23;100627.25;;;17.76;53.23
79415;BME280;68864;44.972;19.612;2023-05-10T10:47:01;100615.94;;;17.87;52.33
79415;BME280;68864;44.972;19.612;2023-05-10T10:49:31;100636.03;;;17.89;52.54
79415;BME280;68864;44.972;19.612;2023-05-10T10:52:24;100614.38;;;17.79;51.28
79415;BME280;68864;44.972;19.612;2023-05-10T10:54:58;100617.94;;;17.86;52.70
79415;BME280;68864;44.972;19.612;2023-05-10T10:57:25;100604.59;;;17.94;52.48
79415;BME280;68864;44.972;19.612;2023-05-10T11:00:17;100619.03;;;18.03;51.51
79415;BME280;68864;44.972;19.612;2023-05-10T11:02:45;100622.25;;;18.05;51.44
79415;BME280;68864;44.972;19.612;2023-05-10T11:05:41;100596.88;;;18.05;52.64
79415;BME280;68864;44.972;19.612;2023-05-10T11:08:27;100605.69;;;18.14;51.42
79415;BME280;68864;44.972;19.612;2023-05-10T11:11:05;100617.69;;;18.22;51.42
79415;BME280;68864;44.972;19.612;2023-05-10T11:13:38;100595.09;;;18.25;51.40
79415;BME280;68864;44.972;19.612;2023-05-10T11:16:13;100612.78;;;18.30;51.74
79415;BME280;68864;44.972;19.612;2023-05-10T11:18:41;100591.44;;;18.28;51.33
79415;BME280;68864;44.972;19.612;2023-05-10T11:21:18;100591.41;;;18.32;51.08
79415;BME280;68864;44.972;19.612;2023-05-10T11:23:50;100591.75;;;18.41;50.42
79415;BME280;68864;44.972;19.612;2023-05-10T11:26:17;100632.13;;;18.35;50.56
79415;BME280;68864;44.972;19.612;2023-05-10T11:28:47;100596.66;;;18.34;50.35
79415;BME280;68864;44.972;19.612;2023-05-10T11:31:15;100586.56;;;18.33;50.47
79415;BME280;68864;44.972;19.612;2023-05-10T11:33:43;100591.13;;;18.19;50.51
79415;BME280;68864;44.972;19.612;2023-05-10T11:36:11;100603.97;;;18.27;50.09
79415;BME280;68864;44.972;19.612;2023-05-10T11:38:38;100587.41;;;18.30;50.59
79415;BME280;68864;44.972;19.612;2023-05-10T11:41:08;100588.59;;;18.32;50.59
79415;BME280;68864;44.972;19.612;2023-05-10T11:43:34;100564.34;;;18.38;50.77
79415;BME280;68864;44.972;19.612;2023-05-10T11:46:04;100635.59;;;18.53;50.33
79415;BME280;68864;44.972;19.612;2023-05-10T11:48:30;100569.06;;;18.52;49.75
79415;BME280;68864;44.972;19.612;2023-05-10T11:50:57;100559.75;;;18.55;49.96
79415;BME280;68864;44.972;19.612;2023-05-10T11:53:25;100558.06;;;18.64;49.53
79415;BME280;68864;44.972;19.612;2023-05-10T11:55:52;100566.81;;;18.77;49.74
79415;BME280;68864;44.972;19.612;2023-05-10T11:58:21;100567.63;;;18.78;49.00
79415;BME280;68864;44.972;19.612;2023-05-10T12:00:48;100569.16;;;18.82;49.73
79415;BME280;68864;44.972;19.612;2023-05-10T12:03:15;100562.78;;;18.78;49.10
79415;BME280;68864;44.972;19.612;2023-05-10T12:05:42;100546.66;;;18.75;49.47
79415;BME280;68864;44.972;19.612;2023-05-10T12:08:13;100543.69;;;18.89;48.91
79415;BME280;68864;44.972;19.612;2023-05-10T12:10:40;100548.03;;;18.97;49.52
79415;BME280;68864;44.972;19.612;2023-05-10T12:13:11;100562.63;;;18.92;48.50
79415;BME280;68864;44.972;19.612;2023-05-10T12:15:40;100560.34;;;18.80;48.67
79415;BME280;68864;44.972;19.612;2023-05-10T12:18:08;100553.91;;;18.76;49.01
79415;BME280;68864;44.972;19.612;2023-05-10T12:20:36;100572.88;;;18.76;49.03
79415;BME280;68864;44.972;19.612;2023-05-10T12:23:03;100558.31;;;18.81;49.06
79415;BME280;68864;44.972;19.612;2023-05-10T12:25:31;100548.25;;;18.80;49.13
79415;BME280;68864;44.972;19.612;2023-05-10T12:28:00;100546.59;;;18.82;48.81
79415;BME280;68864;44.972;19.612;2023-05-10T12:30:28;100535.69;;;18.84;48.68
79415;BME280;68864;44.972;19.612;2023-05-10T12:33:01;100522.41;;;18.81;47.94
79415;BME280;68864;44.972;19.612;2023-05-10T12:35:30;100536.97;;;18.76;48.80
79415;BME280;68864;44.972;19.612;2023-05-10T12:37:57;100516.72;;;18.85;48.72
79415;BME280;68864;44.972;19.612;2023-05-10T12:40:24;100517.84;;;18.91;48.70
79415;BME280;68864;44.972;19.612;2023-05-10T12:42:50;100517.84;;;18.91;48.41
79415;BME280;68864;44.972;19.612;2023-05-10T12:45:18;100521.88;;;18.90;48.60
79415;BME280;68864;44.972;19.612;2023-05-10T12:47:45;100527.91;;;18.92;48.29
79415;BME280;68864;44.972;19.612;2023-05-10T12:50:13;100511.31;;;18.97;48.49